Time Latitude Longitude Accuracy (66% radius in meters) Altitude (meters) Speed (km/hour) Bearing (degrees) Battery (%) GPS flag
07:20:44 57.205139 60.116175 3 312 9.3553457260132 273.39999389648 91 1 delete
07:20:42 57.205135 60.116484 3 316 8.6833753585815 266.5 91 1 delete
07:20:40 57.205138 60.116761 3 319 7.4751119613647 270.60000610352 91 1 delete
07:20:38 57.205127 60.117014 3 321 6.5894536972046 270.39999389648 91 1 delete
07:20:36 57.205127 60.117215 3 323 5.20818567276 274.39999389648 91 1 delete
07:20:33 57.205101 60.117424 3 326 3.4307141304016 305.5 91 1 delete
07:20:30 57.205025 60.117527 4 326 3.6339786052704 352.79998779297 91 1 delete
07:20:27 57.204922 60.117533 3 326 4.2816820144653 8.8999996185303 91 1 delete
07:20:24 57.204797 60.117499 3 327 3.9430065155029 12.199999809265 91 1 delete
07:20:21 57.204688 60.117471 3 326 4.3710069656372 14.300000190735 91 1 delete
07:20:18 57.204561 60.117439 3 325 4.723822593689 355 91 1 delete
07:20:16 57.204469 60.117460 3 325 5.3102355003357 344.39999389648 91 1 delete
07:20:14 57.204374 60.117524 3 325 4.7523674964905 331.10000610352 91 1 delete
07:20:11 57.204276 60.117664 3 325 4.693452835083 314.89999389648 94 1 delete
07:20:08 57.204184 60.117801 3 325 4.9387550354004 328 94 1 delete
07:20:05 57.204078 60.117920 3 326 3.530056476593 325.20001220703 94 1 delete
07:20:00 57.203990 60.118034 3 326 1.1717509031296 320 94 1 delete
07:19:52 57.203928 60.118158 3 325 2.0141997337341 301.39999389648 94 1 delete
07:13:04 57.203864 60.118309 3 325 0 0 94 1 delete
07:11:07 57.203950 60.118259 3 331 0 0 94 1 delete
07:10:53 57.204023 60.118159 3 331 1.2619429826736 135.10000610352 94 1 delete
07:10:47 57.204099 60.118046 3 333 2.6717224121094 139.60000610352 94 1 delete
07:10:43 57.204173 60.117920 3 332 2.7257475852966 137.10000610352 94 1 delete
07:10:39 57.204253 60.117806 3 332 3.5087461471558 140.5 94 1 delete
07:10:36 57.204333 60.117692 3 332 2.8580586910248 135 94 1 delete
07:10:32 57.204423 60.117575 3 331 3.2844026088715 146.69999694824 94 1 delete
07:10:29 57.204511 60.117506 3 333 3.9085164070129 161.60000610352 94 1 delete
07:10:26 57.204628 60.117467 3 335 3.9918541908264 173.39999389648 94 1 delete
07:10:23 57.204744 60.117469 3 334 3.8277015686035 179.69999694824 94 1 delete
07:10:20 57.204847 60.117487 3 331 4.1043634414673 185.69999694824 94 1 delete
07:10:17 57.204951 60.117505 4 327 4.3545951843262 195.5 94 1 delete
07:10:14 57.205061 60.117529 3 327 3.7206585407257 192.80000305176 94 1 delete
07:10:03 57.205177 60.117506 3 327 1.7910052537918 105.09999847412 94 1 delete
07:09:58 57.205199 60.117340 3 327 1.9325888156891 105.19999694824 94 1 delete
07:09:52 57.205214 60.117147 3 326 1.9920340776443 89.900001525879 94 1 delete
07:09:46 57.205211 60.116951 3 325 2.3542301654816 84.099998474121 94 1 delete
07:09:41 57.205207 60.116768 3 323 2.0838665962219 85.5 94 1 delete
07:09:37 57.205204 60.116598 3 322 2.0629348754883 96.5 94 1 delete
07:09:32 57.205210 60.116411 3 321 2.0928926467896 88.800003051758 94 1 delete
07:09:27 57.205218 60.116233 3 320 2.0274367332458 85.099998474121 94 1 delete
07:09:22 57.205221 60.116050 3 317 2.295125246048 94.900001525879 94 1 delete
07:09:17 57.205237 60.115862 3 316 2.7004630565643 105.09999847412 94 1 delete
07:09:13 57.205274 60.115683 3 316 2.6550517082214 118.5 94 1 delete
07:09:09 57.205311 60.115514 3 316 2.7500727176666 121.59999847412 94 1 delete
07:09:05 57.205348 60.115335 3 316 2.4397747516632 113.30000305176 94 1 delete
07:09:00 57.205316 60.115157 4 317 2.0557239055634 15.5 94 1 delete
07:08:55 57.205231 60.115089 3 316 1.8809571266174 84 94 1 delete
07:08:50 57.205210 60.114925 3 314 2.1503486633301 68.099998474121 94 1 delete
07:08:46 57.205172 60.114771 3 312 2.7565557956696 70.699996948242 94 1 delete
07:08:42 57.205135 60.114604 3 311 2.9697813987732 80.300003051758 94 1 delete